createdAt,value
2018-07-10T00:00:30.374Z,3.00
2018-07-10T00:01:31.087Z,4.00
2018-07-10T00:02:31.802Z,4.00
2018-07-10T00:03:32.519Z,3.00
2018-07-10T00:04:33.230Z,3.00
2018-07-10T00:05:33.940Z,3.00
2018-07-10T00:06:34.665Z,3.00
2018-07-10T00:07:35.376Z,4.00
2018-07-10T00:08:36.086Z,3.00
2018-07-10T00:09:36.797Z,4.00
2018-07-10T00:10:37.510Z,4.00
2018-07-10T00:11:38.219Z,4.00
2018-07-10T00:12:38.944Z,3.00
2018-07-10T00:13:39.657Z,3.00
2018-07-10T00:14:40.370Z,4.00
2018-07-10T00:15:41.080Z,4.00
2018-07-10T00:16:41.806Z,4.00
2018-07-10T00:17:42.531Z,4.00
2018-07-10T00:18:43.245Z,3.00
2018-07-10T00:19:43.956Z,3.00
2018-07-10T00:20:44.668Z,4.00
2018-07-10T00:21:45.379Z,3.00
2018-07-10T00:22:46.091Z,3.00
2018-07-10T00:23:46.804Z,5.00
2018-07-10T00:24:47.516Z,4.00
2018-07-10T00:25:48.240Z,3.00
2018-07-10T00:26:48.953Z,4.00
2018-07-10T00:27:49.668Z,4.00
2018-07-10T00:28:50.383Z,3.00
2018-07-10T00:29:51.111Z,4.00
2018-07-10T00:30:51.837Z,4.00
2018-07-10T00:31:52.549Z,4.00
2018-07-10T00:32:53.260Z,3.00
2018-07-10T00:33:53.985Z,4.00
2018-07-10T00:34:54.700Z,3.00
2018-07-10T00:35:55.413Z,4.00
2018-07-10T00:36:56.125Z,3.00
2018-07-10T00:37:56.838Z,4.00
2018-07-10T00:38:57.564Z,4.00
2018-07-10T00:39:58.275Z,3.00
2018-07-10T00:40:58.987Z,5.00
2018-07-10T00:41:59.714Z,4.00
2018-07-10T00:43:00.426Z,3.00
2018-07-10T00:44:01.139Z,5.00
2018-07-10T00:45:01.853Z,5.00
2018-07-10T00:46:02.568Z,4.00
2018-07-10T00:47:03.278Z,4.00
2018-07-10T00:48:03.991Z,3.00
2018-07-10T00:49:04.704Z,4.00
2018-07-10T00:50:05.420Z,4.00
2018-07-10T00:51:06.143Z,5.00
2018-07-10T00:52:06.854Z,5.00
2018-07-10T00:53:07.580Z,3.00
2018-07-10T00:54:08.304Z,2.00
2018-07-10T00:55:09.021Z,3.00
2018-07-10T00:56:09.747Z,6.00
2018-07-10T00:57:10.460Z,6.00
2018-07-10T00:58:11.170Z,4.00
2018-07-10T00:59:11.882Z,3.00
2018-07-10T01:00:12.593Z,4.00
2018-07-10T01:01:13.304Z,4.00
2018-07-10T01:02:14.017Z,4.00
2018-07-10T01:03:14.741Z,3.00
2018-07-10T01:04:15.456Z,3.00
2018-07-10T01:05:16.168Z,3.00
2018-07-10T01:06:16.883Z,4.00
2018-07-10T01:07:17.597Z,3.00
2018-07-10T01:08:18.309Z,3.00
2018-07-10T01:09:19.020Z,3.00
2018-07-10T01:10:19.745Z,4.00
2018-07-10T01:11:20.474Z,4.00
2018-07-10T01:12:21.190Z,3.00
2018-07-10T01:13:21.910Z,4.00
2018-07-10T01:14:22.624Z,4.00
2018-07-10T01:15:23.346Z,3.00
2018-07-10T01:16:24.058Z,3.00
2018-07-10T01:17:24.771Z,3.00
2018-07-10T01:18:25.498Z,4.00
2018-07-10T01:19:26.215Z,4.00
2018-07-10T01:20:26.926Z,3.00
2018-07-10T01:21:27.639Z,4.00
2018-07-10T01:22:28.352Z,3.00
2018-07-10T01:23:29.065Z,3.00
2018-07-10T01:24:29.778Z,3.00
2018-07-10T01:25:30.504Z,4.00
2018-07-10T01:26:31.228Z,6.00
2018-07-10T01:27:31.941Z,3.00
2018-07-10T01:28:32.653Z,4.00
2018-07-10T01:29:33.368Z,4.00
2018-07-10T01:30:34.081Z,4.00
2018-07-10T01:31:34.793Z,4.00
2018-07-10T01:32:35.505Z,4.00
2018-07-10T01:33:36.258Z,5.00
2018-07-10T01:34:36.944Z,3.00
2018-07-10T01:35:37.659Z,5.00
2018-07-10T01:36:38.385Z,6.00
2018-07-10T01:37:39.098Z,5.00
2018-07-10T01:38:39.810Z,4.00
2018-07-10T01:39:40.534Z,5.00
2018-07-10T01:40:41.249Z,5.00
2018-07-10T01:41:41.961Z,5.00
2018-07-10T01:42:42.687Z,3.00
2018-07-10T01:43:43.412Z,4.00
2018-07-10T01:44:44.124Z,5.00
2018-07-10T01:45:44.851Z,6.00
2018-07-10T01:46:45.598Z,5.00
2018-07-10T01:47:46.276Z,5.00
2018-07-10T01:48:47.001Z,4.00
2018-07-10T01:49:47.717Z,5.00
2018-07-10T01:50:48.426Z,4.00
2018-07-10T01:51:49.136Z,5.00
2018-07-10T01:52:49.849Z,6.00
2018-07-10T01:53:50.564Z,4.00
2018-07-10T01:54:51.288Z,5.00
2018-07-10T01:55:52.001Z,4.00
2018-07-10T01:56:52.716Z,4.00
2018-07-10T01:57:53.430Z,4.00
2018-07-10T01:58:54.143Z,5.00
2018-07-10T01:59:54.870Z,4.00
2018-07-10T02:00:55.583Z,3.00
2018-07-10T02:01:56.297Z,4.00
2018-07-10T02:02:57.022Z,3.00
2018-07-10T02:03:57.748Z,3.00
2018-07-10T02:04:58.468Z,3.00
2018-07-10T02:05:59.174Z,3.00
2018-07-10T02:06:59.890Z,3.00
2018-07-10T02:08:00.603Z,4.00
2018-07-10T02:09:01.319Z,4.00
2018-07-10T02:10:02.028Z,4.00
2018-07-10T02:11:02.742Z,3.00
2018-07-10T02:12:03.454Z,3.00
2018-07-10T02:13:04.178Z,3.00
2018-07-10T02:14:04.960Z,3.00
2018-07-10T02:15:05.617Z,3.00
2018-07-10T02:16:06.344Z,3.00
2018-07-10T02:17:07.069Z,3.00
2018-07-10T02:18:07.779Z,4.00
2018-07-10T02:19:08.491Z,4.00
2018-07-10T02:20:09.202Z,3.00
2018-07-10T02:21:09.914Z,3.00
2018-07-10T02:22:10.624Z,4.00
2018-07-10T02:23:11.337Z,5.00
2018-07-10T02:24:12.047Z,3.00
2018-07-10T02:25:12.759Z,3.00
2018-07-10T02:26:13.484Z,2.00
2018-07-10T02:27:14.195Z,5.00
2018-07-10T02:28:14.920Z,4.00
2018-07-10T02:29:15.631Z,4.00
2018-07-10T02:30:16.344Z,2.00
2018-07-10T02:31:17.056Z,3.00
2018-07-10T02:32:17.766Z,3.00
2018-07-10T02:33:18.493Z,3.00
2018-07-10T02:34:19.205Z,2.00
2018-07-10T02:35:19.918Z,3.00
2018-07-10T02:36:20.630Z,3.00
2018-07-10T02:37:21.356Z,3.00
2018-07-10T02:38:22.081Z,4.00
2018-07-10T02:39:22.805Z,4.00
2018-07-10T02:40:23.517Z,3.00
2018-07-10T02:41:24.227Z,3.00
2018-07-10T02:42:24.940Z,4.00
2018-07-10T02:43:25.653Z,3.00
2018-07-10T02:44:26.365Z,3.00
2018-07-10T02:45:27.078Z,3.00
2018-07-10T02:46:27.789Z,4.00
2018-07-10T02:47:28.517Z,3.00
2018-07-10T02:48:29.230Z,3.00
2018-07-10T02:49:29.940Z,2.00
2018-07-10T02:50:30.665Z,2.00
2018-07-10T02:51:31.376Z,3.00
2018-07-10T02:52:32.100Z,3.00
2018-07-10T02:53:32.811Z,4.00
2018-07-10T02:54:33.532Z,4.00
2018-07-10T02:55:34.248Z,4.00
2018-07-10T02:56:34.961Z,3.00
2018-07-10T02:57:35.678Z,3.00
2018-07-10T02:58:36.387Z,3.00
2018-07-10T02:59:37.114Z,3.00
2018-07-10T03:00:37.829Z,4.00
2018-07-10T03:01:38.542Z,3.00
2018-07-10T03:02:39.254Z,3.00
2018-07-10T03:03:39.966Z,4.00
2018-07-10T03:04:40.680Z,4.00
2018-07-10T03:05:41.392Z,3.00
2018-07-10T03:06:42.106Z,3.00
2018-07-10T03:07:42.830Z,4.00
2018-07-10T03:08:43.544Z,3.00
2018-07-10T03:09:44.272Z,3.00
2018-07-10T03:10:44.997Z,3.00
2018-07-10T03:11:45.710Z,3.00
2018-07-10T03:12:46.423Z,3.00
2018-07-10T03:13:47.147Z,3.00
2018-07-10T03:14:47.879Z,4.00
2018-07-10T03:15:48.601Z,4.00
2018-07-10T03:16:49.314Z,3.00
2018-07-10T03:17:50.025Z,2.00
2018-07-10T03:18:50.746Z,6.00
2018-07-10T03:19:51.451Z,3.00
2018-07-10T03:20:52.164Z,3.00
2018-07-10T03:21:52.879Z,3.00
2018-07-10T03:22:53.592Z,3.00
2018-07-10T03:23:54.316Z,3.00
2018-07-10T03:24:55.047Z,3.00
2018-07-10T03:25:55.758Z,5.00
2018-07-10T03:26:56.470Z,4.00
2018-07-10T03:27:57.195Z,4.00
2018-07-10T03:28:57.909Z,4.00
2018-07-10T03:29:58.636Z,3.00
2018-07-10T03:30:59.363Z,3.00
2018-07-10T03:32:00.079Z,4.00
2018-07-10T03:33:00.787Z,3.00
2018-07-10T03:34:01.515Z,4.00
2018-07-10T03:35:02.227Z,4.00
2018-07-10T03:36:02.942Z,3.00
2018-07-10T03:37:03.657Z,3.00
2018-07-10T03:38:04.388Z,4.00
2018-07-10T03:39:05.104Z,4.00
2018-07-10T03:40:05.823Z,3.00
2018-07-10T03:41:06.532Z,3.00
2018-07-10T03:42:07.258Z,4.00
2018-07-10T03:43:07.986Z,3.00
2018-07-10T03:44:08.701Z,3.00
2018-07-10T03:45:09.416Z,5.00
2018-07-10T03:46:10.130Z,3.00
2018-07-10T03:47:10.844Z,3.00
2018-07-10T03:48:11.557Z,4.00
2018-07-10T03:49:12.272Z,3.00
2018-07-10T03:50:12.986Z,3.00
2018-07-10T03:51:13.716Z,4.00
2018-07-10T03:52:14.444Z,4.00
2018-07-10T03:53:15.161Z,3.00
2018-07-10T03:54:15.886Z,3.00
2018-07-10T03:55:16.600Z,3.00
2018-07-10T03:56:17.317Z,4.00
2018-07-10T03:57:18.031Z,3.00
2018-07-10T03:58:18.746Z,3.00
2018-07-10T03:59:19.460Z,5.00
2018-07-10T04:00:20.178Z,2.00
2018-07-10T04:01:20.893Z,3.00
2018-07-10T04:02:21.611Z,5.00
2018-07-10T04:03:22.342Z,3.00
2018-07-10T04:04:23.054Z,3.00
2018-07-10T04:05:23.786Z,4.00
2018-07-10T04:06:24.511Z,3.00
2018-07-10T04:07:25.230Z,4.00
2018-07-10T04:08:25.942Z,3.00
2018-07-10T04:09:26.657Z,3.00
2018-07-10T04:10:27.374Z,4.00
2018-07-10T04:11:28.089Z,3.00
2018-07-10T04:12:28.804Z,3.00
2018-07-10T04:13:29.537Z,3.00
2018-07-10T04:14:30.249Z,5.00
2018-07-10T04:15:30.965Z,3.00
2018-07-10T04:16:31.683Z,4.00
2018-07-10T04:17:32.412Z,3.00
2018-07-10T04:18:33.130Z,4.00
2018-07-10T04:19:33.846Z,5.00
2018-07-10T04:20:34.564Z,3.00
2018-07-10T04:21:35.278Z,4.00
2018-07-10T04:22:35.997Z,3.00
2018-07-10T04:23:36.728Z,4.00
2018-07-10T04:24:37.444Z,3.00
2018-07-10T04:25:38.176Z,3.00
2018-07-10T04:26:38.892Z,3.00
2018-07-10T04:27:39.609Z,4.00
2018-07-10T04:28:40.325Z,3.00
2018-07-10T04:29:41.044Z,3.00
2018-07-10T04:30:41.760Z,3.00
2018-07-10T04:31:42.478Z,4.00
2018-07-10T04:32:43.193Z,3.00
2018-07-10T04:33:43.908Z,3.00
2018-07-10T04:34:44.627Z,4.00
2018-07-10T04:35:45.343Z,3.00
2018-07-10T04:36:46.059Z,3.00
2018-07-10T04:37:46.774Z,3.00
2018-07-10T04:38:47.490Z,4.00
2018-07-10T04:39:48.206Z,4.00
2018-07-10T04:40:48.926Z,4.00
2018-07-10T04:41:49.652Z,3.00
2018-07-10T04:42:50.369Z,3.00
2018-07-10T04:43:51.085Z,3.00
2018-07-10T04:44:51.819Z,3.00
2018-07-10T04:45:52.548Z,4.00
2018-07-10T04:46:53.264Z,3.00
2018-07-10T04:47:53.980Z,2.00
2018-07-10T04:48:54.741Z,4.00
2018-07-10T04:49:55.428Z,3.00
2018-07-10T04:50:56.142Z,2.00
2018-07-10T04:51:56.857Z,3.00
2018-07-10T04:52:57.572Z,3.00
2018-07-10T04:53:58.286Z,3.00
2018-07-10T04:54:59.002Z,3.00
2018-07-10T04:55:59.716Z,3.00
2018-07-10T04:57:00.431Z,3.00
2018-07-10T04:58:01.146Z,3.00
2018-07-10T04:59:01.877Z,5.00
2018-07-10T05:00:02.598Z,4.00
2018-07-10T05:01:03.313Z,4.00
2018-07-10T05:02:04.028Z,3.00
2018-07-10T05:03:04.759Z,3.00
2018-07-10T05:04:05.490Z,3.00
2018-07-10T05:05:06.218Z,3.00
2018-07-10T05:06:06.973Z,4.00
2018-07-10T05:07:07.651Z,4.00
2018-07-10T05:08:08.368Z,3.00
2018-07-10T05:09:09.099Z,3.00
2018-07-10T05:10:09.825Z,2.00
2018-07-10T05:11:10.542Z,3.00
2018-07-10T05:12:11.312Z,2.00
2018-07-10T05:13:11.983Z,3.00
2018-07-10T05:14:12.698Z,2.00
2018-07-10T05:15:13.415Z,4.00
2018-07-10T05:16:14.148Z,4.00
2018-07-10T05:17:14.878Z,4.00
2018-07-10T05:18:15.610Z,3.00
2018-07-10T05:19:16.329Z,3.00
2018-07-10T05:20:17.045Z,5.00
2018-07-10T05:21:17.764Z,3.00
2018-07-10T05:22:18.492Z,6.00
2018-07-10T05:23:19.207Z,2.00
2018-07-10T05:24:19.922Z,3.00
2018-07-10T05:25:20.637Z,4.00
2018-07-10T05:26:21.357Z,2.00
2018-07-10T05:27:22.075Z,4.00
2018-07-10T05:28:22.790Z,3.00
2018-07-10T05:29:23.519Z,3.00
2018-07-10T05:30:24.238Z,3.00
2018-07-10T05:31:24.963Z,3.00
2018-07-10T05:32:25.685Z,3.00
2018-07-10T05:33:26.399Z,3.00
2018-07-10T05:34:27.128Z,3.00
2018-07-10T05:35:27.844Z,2.00
2018-07-10T05:36:28.562Z,3.00
2018-07-10T05:37:29.289Z,3.00
2018-07-10T05:38:30.018Z,4.00
2018-07-10T05:39:30.733Z,3.00
2018-07-10T05:40:31.448Z,3.00
2018-07-10T05:41:32.164Z,4.00
2018-07-10T05:42:32.878Z,3.00
2018-07-10T05:43:33.608Z,3.00
2018-07-10T05:44:34.337Z,3.00
2018-07-10T05:45:35.055Z,3.00
2018-07-10T05:46:35.784Z,3.00
2018-07-10T05:47:36.513Z,3.00
2018-07-10T05:48:37.231Z,4.00
2018-07-10T05:49:37.962Z,3.00
2018-07-10T05:50:38.679Z,4.00
2018-07-10T05:51:39.449Z,2.00
2018-07-10T05:52:40.110Z,4.00
2018-07-10T05:53:40.826Z,3.00
2018-07-10T05:54:41.543Z,3.00
2018-07-10T05:55:42.259Z,2.00
2018-07-10T05:56:42.989Z,3.00
2018-07-10T05:57:43.709Z,3.00
2018-07-10T05:58:44.463Z,3.00
2018-07-10T05:59:45.179Z,4.00
2018-07-10T06:00:45.867Z,2.00
2018-07-10T06:01:46.597Z,4.00
2018-07-10T06:02:47.314Z,3.00
2018-07-10T06:03:48.032Z,3.00
2018-07-10T06:04:48.748Z,5.00
2018-07-10T06:05:49.479Z,3.00
2018-07-10T06:06:50.197Z,4.00
2018-07-10T06:07:50.914Z,4.00
2018-07-10T06:08:51.631Z,3.00
2018-07-10T06:09:52.362Z,4.00
2018-07-10T06:10:53.078Z,3.00
2018-07-10T06:11:53.794Z,2.00
2018-07-10T06:12:54.511Z,3.00
2018-07-10T06:13:55.270Z,4.00
2018-07-10T06:14:55.951Z,3.00
2018-07-10T06:15:56.682Z,3.00
2018-07-10T06:16:57.397Z,3.00
2018-07-10T06:17:58.114Z,3.00
2018-07-10T06:18:58.831Z,2.00
2018-07-10T06:19:59.547Z,4.00
2018-07-10T06:21:00.265Z,3.00
2018-07-10T06:22:00.995Z,3.00
2018-07-10T06:23:01.711Z,4.00
2018-07-10T06:24:02.429Z,4.00
2018-07-10T06:25:03.146Z,3.00
2018-07-10T06:26:03.862Z,3.00
2018-07-10T06:27:04.579Z,4.00
2018-07-10T06:28:05.298Z,4.00
2018-07-10T06:29:06.014Z,3.00
2018-07-10T06:30:06.745Z,4.00
2018-07-10T06:31:07.461Z,13.00
2018-07-10T06:32:08.193Z,11.00
2018-07-10T06:33:08.915Z,29.00
2018-07-10T06:34:09.645Z,12.00
2018-07-10T06:35:10.376Z,5.00
2018-07-10T06:36:11.108Z,5.00
2018-07-10T06:37:11.824Z,4.00
2018-07-10T06:38:12.541Z,3.00
2018-07-10T06:39:13.273Z,3.00
2018-07-10T06:40:13.989Z,2.00
2018-07-10T06:41:14.706Z,3.00
2018-07-10T06:42:15.421Z,2.00
2018-07-10T06:43:16.138Z,3.00
2018-07-10T06:44:16.856Z,3.00
2018-07-10T06:45:17.571Z,4.00
2018-07-10T06:46:18.288Z,4.00
2018-07-10T06:47:19.020Z,4.00
2018-07-10T06:48:19.750Z,3.00
2018-07-10T06:49:20.483Z,2.00
2018-07-10T06:50:21.209Z,3.00
2018-07-10T06:51:21.926Z,4.00
2018-07-10T06:52:22.782Z,4.00
2018-07-10T06:53:23.656Z,5.00
2018-07-10T06:54:24.072Z,3.00
2018-07-10T06:55:24.788Z,3.00
2018-07-10T06:56:25.508Z,3.00
2018-07-10T06:57:26.235Z,5.00
2018-07-10T06:58:26.954Z,3.00
2018-07-10T06:59:27.671Z,3.00
2018-07-10T07:00:28.389Z,4.00
2018-07-10T07:01:29.108Z,4.00
2018-07-10T07:02:29.827Z,3.00
2018-07-10T07:03:30.547Z,4.00
2018-07-10T07:04:31.262Z,3.00
2018-07-10T07:05:31.982Z,4.00
2018-07-10T07:06:32.709Z,4.00
2018-07-10T07:07:33.482Z,3.00
2018-07-10T07:08:34.158Z,4.00
2018-07-10T07:09:34.875Z,3.00
2018-07-10T07:10:35.593Z,3.00
2018-07-10T07:11:36.310Z,5.00
2018-07-10T07:12:37.026Z,3.00
2018-07-10T07:13:37.742Z,4.00
2018-07-10T07:14:38.460Z,5.00
2018-07-10T07:15:39.191Z,3.00
2018-07-10T07:16:39.908Z,3.00
2018-07-10T07:17:40.626Z,6.00
2018-07-10T07:18:41.357Z,4.00
2018-07-10T07:19:42.072Z,3.00
2018-07-10T07:20:42.790Z,3.00
2018-07-10T07:21:43.520Z,4.00
2018-07-10T07:22:44.235Z,4.00
2018-07-10T07:23:45.005Z,4.00
2018-07-10T07:24:45.666Z,4.00
2018-07-10T07:25:46.385Z,7.00
2018-07-10T07:26:47.102Z,4.00
2018-07-10T07:27:47.835Z,4.00
2018-07-10T07:28:48.552Z,5.00
2018-07-10T07:29:49.270Z,7.00
2018-07-10T07:30:49.990Z,5.00
2018-07-10T07:31:50.709Z,5.00
2018-07-10T07:32:51.442Z,3.00
2018-07-10T07:33:52.157Z,4.00
2018-07-10T07:34:52.883Z,4.00
2018-07-10T07:35:53.598Z,4.00
2018-07-10T07:36:54.312Z,3.00
2018-07-10T07:37:55.032Z,3.00
2018-07-10T07:38:55.760Z,3.00
2018-07-10T07:39:56.477Z,4.00
2018-07-10T07:40:57.196Z,3.00
2018-07-10T07:41:57.914Z,3.00
2018-07-10T07:42:58.632Z,3.00
2018-07-10T07:43:59.428Z,4.00
2018-07-10T07:45:00.078Z,4.00
2018-07-10T07:46:00.790Z,4.00
2018-07-10T07:47:01.521Z,4.00
2018-07-10T07:48:02.251Z,5.00
2018-07-10T07:49:02.979Z,3.00
2018-07-10T07:50:03.709Z,4.00
2018-07-10T07:51:04.425Z,4.00
2018-07-10T07:52:05.144Z,4.00
2018-07-10T07:53:05.859Z,4.00
2018-07-10T07:54:06.591Z,4.00
2018-07-10T07:55:07.309Z,3.00
2018-07-10T07:56:08.027Z,3.00
2018-07-10T07:57:08.743Z,4.00
2018-07-10T07:58:09.461Z,5.00
2018-07-10T07:59:10.177Z,4.00
2018-07-10T08:00:10.897Z,5.00
2018-07-10T08:01:11.626Z,4.00
2018-07-10T08:02:12.345Z,4.00
2018-07-10T08:03:13.069Z,4.00
2018-07-10T08:04:13.786Z,4.00
2018-07-10T08:05:14.519Z,4.00
2018-07-10T08:06:15.239Z,4.00
2018-07-10T08:07:15.953Z,3.00
2018-07-10T08:08:16.673Z,4.00
2018-07-10T08:09:17.386Z,3.00
2018-07-10T08:10:18.103Z,3.00
2018-07-10T08:11:18.819Z,4.00
2018-07-10T08:12:19.545Z,4.00
2018-07-10T08:13:20.256Z,2.00
2018-07-10T08:14:20.973Z,3.00
2018-07-10T08:15:21.688Z,3.00
2018-07-10T08:16:22.404Z,4.00
2018-07-10T08:17:23.131Z,3.00
2018-07-10T08:18:23.850Z,4.00
2018-07-10T08:19:24.567Z,4.00
2018-07-10T08:20:25.285Z,5.00
2018-07-10T08:21:26.001Z,4.00
2018-07-10T08:22:26.732Z,3.00
2018-07-10T08:23:27.445Z,3.00
2018-07-10T08:24:28.247Z,2.00
2018-07-10T08:25:28.878Z,3.00
2018-07-10T08:26:29.595Z,4.00
2018-07-10T08:27:30.326Z,3.00
2018-07-10T08:28:31.264Z,4.00
2018-07-10T08:29:31.981Z,6.00
2018-07-10T08:30:32.699Z,4.00
2018-07-10T08:31:33.419Z,8.00
2018-07-10T08:32:34.146Z,5.00
2018-07-10T08:33:35.013Z,3.00
2018-07-10T08:34:35.581Z,4.00
2018-07-10T08:35:36.297Z,5.00
2018-07-10T08:36:37.027Z,4.00
2018-07-10T08:37:37.742Z,4.00
2018-07-10T08:38:38.488Z,6.00
2018-07-10T08:39:39.182Z,5.00
2018-07-10T08:40:39.895Z,5.00
2018-07-10T08:41:40.611Z,3.00
2018-07-10T08:42:41.329Z,4.00
2018-07-10T08:43:42.049Z,5.00
2018-07-10T08:44:42.774Z,3.00
2018-07-10T08:45:43.481Z,5.00
2018-07-10T08:46:44.196Z,4.00
2018-07-10T08:47:44.913Z,5.00
2018-07-10T08:48:45.643Z,3.00
2018-07-10T08:49:46.361Z,4.00
2018-07-10T08:50:47.145Z,4.00
2018-07-10T08:51:47.806Z,4.00
2018-07-10T08:52:48.523Z,5.00
2018-07-10T08:53:49.238Z,4.00
2018-07-10T08:54:49.953Z,4.00
2018-07-10T08:55:50.670Z,5.00
2018-07-10T08:56:51.399Z,4.00
2018-07-10T08:57:52.115Z,4.00
2018-07-10T08:58:52.834Z,6.00
2018-07-10T08:59:53.582Z,5.00
2018-07-10T09:00:54.282Z,4.00
2018-07-10T09:01:54.996Z,5.00
2018-07-10T09:02:55.712Z,4.00
2018-07-10T09:03:56.427Z,4.00
2018-07-10T09:04:57.145Z,5.00
2018-07-10T09:05:57.863Z,5.00
2018-07-10T09:06:58.580Z,5.00
2018-07-10T09:07:59.321Z,4.00
2018-07-10T09:09:00.023Z,4.00
2018-07-10T09:10:00.752Z,7.00
2018-07-10T09:11:01.470Z,4.00
2018-07-10T09:12:02.186Z,4.00
2018-07-10T09:13:02.917Z,5.00
2018-07-10T09:14:03.632Z,6.00
2018-07-10T09:15:04.362Z,8.00
2018-07-10T09:16:05.081Z,7.00
2018-07-10T09:17:05.804Z,17.00
2018-07-10T09:18:06.527Z,18.00
2018-07-10T09:19:07.241Z,6.00
2018-07-10T09:20:07.960Z,5.00
2018-07-10T09:21:08.677Z,5.00
2018-07-10T09:22:09.410Z,4.00
2018-07-10T09:23:10.145Z,3.00
2018-07-10T09:24:10.846Z,4.00
2018-07-10T09:25:11.566Z,4.00
2018-07-10T09:26:12.285Z,5.00
2018-07-10T09:27:13.002Z,4.00
2018-07-10T09:28:13.734Z,4.00
2018-07-10T09:29:14.452Z,5.00
2018-07-10T09:30:15.170Z,9.00
2018-07-10T09:31:15.889Z,12.00
2018-07-10T09:32:16.610Z,10.00
2018-07-10T09:33:17.343Z,9.00
2018-07-10T09:34:18.061Z,15.00
2018-07-10T09:35:18.781Z,14.00
2018-07-10T09:36:19.501Z,10.00
2018-07-10T09:37:20.233Z,8.00
2018-07-10T09:38:20.967Z,5.00
2018-07-10T09:39:21.695Z,4.00
2018-07-10T09:40:22.424Z,6.00
2018-07-10T09:41:23.156Z,4.00
2018-07-10T09:42:23.876Z,6.00
2018-07-10T09:43:24.596Z,13.00
2018-07-10T09:44:25.371Z,5.00
2018-07-10T09:45:26.027Z,5.00
2018-07-10T09:46:26.763Z,4.00
2018-07-10T09:47:27.475Z,5.00
2018-07-10T09:48:28.193Z,4.00
2018-07-10T09:49:28.909Z,4.00
2018-07-10T09:50:29.627Z,5.00
2018-07-10T09:51:30.343Z,4.00
2018-07-10T09:52:31.070Z,4.00
2018-07-10T09:53:31.785Z,4.00
2018-07-10T09:54:32.503Z,6.00
2018-07-10T09:55:33.224Z,6.00
2018-07-10T09:56:33.952Z,4.00
2018-07-10T09:57:34.671Z,5.00
2018-07-10T09:58:35.403Z,4.00
2018-07-10T09:59:36.122Z,6.00
2018-07-10T10:00:36.834Z,5.00
2018-07-10T10:01:37.553Z,5.00
2018-07-10T10:02:38.286Z,6.00
2018-07-10T10:03:39.012Z,5.00
2018-07-10T10:04:39.728Z,6.00
2018-07-10T10:05:40.444Z,5.00
2018-07-10T10:06:41.162Z,4.00
2018-07-10T10:07:41.878Z,3.00
2018-07-10T10:08:42.600Z,5.00
2018-07-10T10:09:43.312Z,4.00
2018-07-10T10:10:44.031Z,5.00
2018-07-10T10:11:44.761Z,5.00
2018-07-10T10:12:45.480Z,6.00
2018-07-10T10:13:46.195Z,5.00
2018-07-10T10:14:46.912Z,4.00
2018-07-10T10:15:47.645Z,4.00
2018-07-10T10:16:48.361Z,4.00
2018-07-10T10:17:49.079Z,5.00
2018-07-10T10:18:49.797Z,4.00
2018-07-10T10:19:50.514Z,5.00
2018-07-10T10:20:51.232Z,6.00
2018-07-10T10:21:51.952Z,4.00
2018-07-10T10:22:52.671Z,5.00
2018-07-10T10:23:53.404Z,5.00
2018-07-10T10:24:54.119Z,5.00
2018-07-10T10:25:54.927Z,4.00
2018-07-10T10:26:55.554Z,5.00
2018-07-10T10:27:56.273Z,6.00
2018-07-10T10:28:56.988Z,5.00
2018-07-10T10:29:57.703Z,4.00
2018-07-10T10:30:58.419Z,5.00
2018-07-10T10:31:59.135Z,5.00
2018-07-10T10:32:59.866Z,6.00
2018-07-10T10:34:00.586Z,5.00
2018-07-10T10:35:01.301Z,5.00
2018-07-10T10:36:02.019Z,5.00
2018-07-10T10:37:02.735Z,5.00
2018-07-10T10:38:03.452Z,6.00
2018-07-10T10:39:04.169Z,5.00
2018-07-10T10:40:04.899Z,5.00
2018-07-10T10:41:05.619Z,5.00
2018-07-10T10:42:06.337Z,5.00
2018-07-10T10:43:07.056Z,6.00
2018-07-10T10:44:07.774Z,6.00
2018-07-10T10:45:08.505Z,6.00
2018-07-10T10:46:09.221Z,6.00
2018-07-10T10:47:09.952Z,6.00
2018-07-10T10:48:10.685Z,5.00
2018-07-10T10:49:11.404Z,7.00
2018-07-10T10:50:12.121Z,5.00
2018-07-10T10:51:12.850Z,4.00
2018-07-10T10:52:13.570Z,5.00
2018-07-10T10:53:14.289Z,5.00
2018-07-10T10:54:15.006Z,7.00
2018-07-10T10:55:15.737Z,7.00
2018-07-10T10:56:16.455Z,3.00
2018-07-10T10:57:17.174Z,5.00
2018-07-10T10:58:17.890Z,6.00
2018-07-10T10:59:18.623Z,7.00
2018-07-10T11:00:19.340Z,6.00
2018-07-10T11:01:20.059Z,6.00
2018-07-10T11:02:20.829Z,6.00
2018-07-10T11:03:21.510Z,7.00
2018-07-10T11:04:22.228Z,6.00
2018-07-10T11:05:22.960Z,5.00
2018-07-10T11:06:23.679Z,7.00
2018-07-10T11:07:24.395Z,6.00
2018-07-10T11:08:25.116Z,7.00
2018-07-10T11:09:25.838Z,7.00
2018-07-10T11:10:26.571Z,5.00
2018-07-10T11:11:27.291Z,8.00
2018-07-10T11:12:28.011Z,7.00
2018-07-10T11:13:28.731Z,6.00
2018-07-10T11:14:29.452Z,6.00
2018-07-10T11:15:30.178Z,7.00
2018-07-10T11:16:30.890Z,6.00
2018-07-10T11:17:31.610Z,6.00
2018-07-10T11:18:32.346Z,6.00
2018-07-10T11:19:33.070Z,7.00
2018-07-10T11:20:33.787Z,5.00
2018-07-10T11:21:34.507Z,5.00
2018-07-10T11:22:35.229Z,6.00
2018-07-10T11:23:35.965Z,8.00
2018-07-10T11:24:36.686Z,7.00
2018-07-10T11:25:37.407Z,8.00
2018-07-10T11:26:38.126Z,6.00
2018-07-10T11:27:38.846Z,4.00
2018-07-10T11:28:39.569Z,6.00
2018-07-10T11:29:40.303Z,5.00
2018-07-10T11:30:41.025Z,8.00
2018-07-10T11:31:41.747Z,7.00
2018-07-10T11:32:42.468Z,6.00
2018-07-10T11:33:43.189Z,5.00
2018-07-10T11:34:43.909Z,6.00
2018-07-10T11:35:44.639Z,6.00
2018-07-10T11:36:45.360Z,6.00
2018-07-10T11:37:46.082Z,5.00
2018-07-10T11:38:46.804Z,7.00
2018-07-10T11:39:47.526Z,6.00
2018-07-10T11:40:48.246Z,6.00
2018-07-10T11:41:48.966Z,7.00
2018-07-10T11:42:49.686Z,8.00
2018-07-10T11:43:50.408Z,6.00
2018-07-10T11:44:51.129Z,7.00
2018-07-10T11:45:51.854Z,7.00
2018-07-10T11:46:52.574Z,7.00
2018-07-10T11:47:53.295Z,7.00
2018-07-10T11:48:54.016Z,6.00
2018-07-10T11:49:54.751Z,6.00
2018-07-10T11:50:55.471Z,8.00
2018-07-10T11:51:56.191Z,6.00
2018-07-10T11:52:56.910Z,7.00
2018-07-10T11:53:57.632Z,7.00
2018-07-10T11:54:58.351Z,7.00
2018-07-10T11:55:59.074Z,9.00
2018-07-10T11:56:59.806Z,7.00
2018-07-10T11:58:00.527Z,7.00
2018-07-10T11:59:01.261Z,7.00
2018-07-10T12:00:01.982Z,7.00
2018-07-10T12:01:02.716Z,8.00
2018-07-10T12:02:03.438Z,9.00
2018-07-10T12:03:04.177Z,10.00
2018-07-10T12:04:04.918Z,8.00
2018-07-10T12:05:05.655Z,10.00
2018-07-10T12:06:06.377Z,7.00
2018-07-10T12:07:07.101Z,8.00
2018-07-10T12:08:07.826Z,8.00
2018-07-10T12:09:08.547Z,9.00
2018-07-10T12:10:09.271Z,6.00
2018-07-10T12:11:09.993Z,7.00
2018-07-10T12:12:10.730Z,8.00
2018-07-10T12:13:11.452Z,9.00
2018-07-10T12:14:12.176Z,8.00
2018-07-10T12:15:12.900Z,8.00
2018-07-10T12:16:13.623Z,8.00
2018-07-10T12:17:14.361Z,9.00
2018-07-10T12:18:15.090Z,6.00
2018-07-10T12:19:15.812Z,7.00
2018-07-10T12:20:16.536Z,6.00
2018-07-10T12:21:17.260Z,8.00
2018-07-10T12:22:17.984Z,8.00
2018-07-10T12:23:18.708Z,7.00
2018-07-10T12:24:19.445Z,6.00
2018-07-10T12:25:20.170Z,7.00
2018-07-10T12:26:20.908Z,6.00
2018-07-10T12:27:21.632Z,7.00
2018-07-10T12:28:22.353Z,5.00
2018-07-10T12:29:23.087Z,6.00
2018-07-10T12:30:23.825Z,7.00
2018-07-10T12:31:24.546Z,7.00
2018-07-10T12:32:25.268Z,6.00
2018-07-10T12:33:25.991Z,7.00
2018-07-10T12:34:26.714Z,7.00
2018-07-10T12:35:27.436Z,8.00
2018-07-10T12:36:28.160Z,5.00
2018-07-10T12:37:28.884Z,8.00
2018-07-10T12:38:29.622Z,6.00
2018-07-10T12:39:30.348Z,7.00
2018-07-10T12:40:31.073Z,6.00
2018-07-10T12:41:31.813Z,8.00
2018-07-10T12:42:32.538Z,7.00
2018-07-10T12:43:33.265Z,8.00
2018-07-10T12:44:34.006Z,8.00
2018-07-10T12:45:34.745Z,6.00
2018-07-10T12:46:35.492Z,6.00
2018-07-10T12:47:36.224Z,5.00
2018-07-10T12:48:36.952Z,7.00
2018-07-10T12:49:37.687Z,8.00
2018-07-10T12:50:38.409Z,6.00
2018-07-10T12:51:39.131Z,6.00
2018-07-10T12:52:39.853Z,6.00
2018-07-10T12:53:40.581Z,4.00
2018-07-10T12:54:41.310Z,8.00
2018-07-10T12:55:42.037Z,8.00
2018-07-10T12:56:42.762Z,8.00
2018-07-10T12:57:43.499Z,9.00
2018-07-10T12:58:44.235Z,8.00
2018-07-10T12:59:44.956Z,7.00
2018-07-10T13:00:45.682Z,7.00
2018-07-10T13:01:46.405Z,6.00
2018-07-10T13:02:47.128Z,8.00
2018-07-10T13:03:47.863Z,7.00
2018-07-10T13:04:48.582Z,6.00
2018-07-10T13:05:49.306Z,6.00
2018-07-10T13:06:50.032Z,9.00
2018-07-10T13:07:50.767Z,6.00
2018-07-10T13:08:51.506Z,9.00
2018-07-10T13:09:52.240Z,6.00
2018-07-10T13:10:52.964Z,7.00
2018-07-10T13:11:53.705Z,9.00
2018-07-10T13:12:54.430Z,8.00
2018-07-10T13:13:55.170Z,7.00
2018-07-10T13:14:55.899Z,7.00
2018-07-10T13:15:56.627Z,7.00
2018-07-10T13:16:57.355Z,7.00
2018-07-10T13:17:58.098Z,8.00
2018-07-10T13:18:58.844Z,7.00
2018-07-10T13:19:59.578Z,7.00
2018-07-10T13:21:00.304Z,6.00
2018-07-10T13:22:01.037Z,8.00
2018-07-10T13:23:01.771Z,7.00
2018-07-10T13:24:02.501Z,8.00
2018-07-10T13:25:03.233Z,7.00
2018-07-10T13:26:03.959Z,7.00
2018-07-10T13:27:04.731Z,7.00
2018-07-10T13:28:05.409Z,8.00